sensor_id;sensor_type;location;lat;lon;timestamp;P1;durP1;ratioP1;P2;durP2;ratioP2
56239;SDS011;42154;51.992;5.896;2024-02-21T00:02:12;19.25;;;11.85;;
56239;SDS011;42154;51.992;5.896;2024-02-21T00:04:37;23.17;;;12.95;;
56239;SDS011;42154;51.992;5.896;2024-02-21T00:07:04;21.60;;;10.98;;
56239;SDS011;42154;51.992;5.896;2024-02-21T00:09:30;22.98;;;10.55;;
56239;SDS011;42154;51.992;5.896;2024-02-21T00:11:55;19.25;;;12.50;;
56239;SDS011;42154;51.992;5.896;2024-02-21T00:14:21;17.40;;;10.80;;
56239;SDS011;42154;51.992;5.896;2024-02-21T00:16:47;21.83;;;12.35;;
56239;SDS011;42154;51.992;5.896;2024-02-21T00:19:13;20.85;;;10.77;;
56239;SDS011;42154;51.992;5.896;2024-02-21T00:21:40;19.48;;;11.68;;
56239;SDS011;42154;51.992;5.896;2024-02-21T00:24:05;20.35;;;11.60;;
56239;SDS011;42154;51.992;5.896;2024-02-21T00:26:31;20.23;;;11.25;;
56239;SDS011;42154;51.992;5.896;2024-02-21T00:28:57;18.58;;;11.20;;
56239;SDS011;42154;51.992;5.896;2024-02-21T00:31:23;18.05;;;11.18;;
56239;SDS011;42154;51.992;5.896;2024-02-21T00:33:48;18.90;;;11.55;;
56239;SDS011;42154;51.992;5.896;2024-02-21T00:36:15;22.52;;;12.07;;
56239;SDS011;42154;51.992;5.896;2024-02-21T00:38:41;18.65;;;10.38;;
56239;SDS011;42154;51.992;5.896;2024-02-21T00:41:07;18.33;;;10.15;;
56239;SDS011;42154;51.992;5.896;2024-02-21T00:43:33;16.40;;;9.23;;
56239;SDS011;42154;51.992;5.896;2024-02-21T00:45:59;17.90;;;10.27;;
56239;SDS011;42154;51.992;5.896;2024-02-21T00:48:24;15.75;;;9.40;;
56239;SDS011;42154;51.992;5.896;2024-02-21T00:50:50;17.75;;;9.93;;
56239;SDS011;42154;51.992;5.896;2024-02-21T00:53:17;14.93;;;9.27;;
56239;SDS011;42154;51.992;5.896;2024-02-21T00:55:42;16.23;;;9.63;;
56239;SDS011;42154;51.992;5.896;2024-02-21T00:58:08;26.45;;;11.15;;
56239;SDS011;42154;51.992;5.896;2024-02-21T01:00:34;19.83;;;10.80;;
56239;SDS011;42154;51.992;5.896;2024-02-21T01:03:00;20.55;;;11.60;;
56239;SDS011;42154;51.992;5.896;2024-02-21T01:05:25;20.52;;;11.57;;
56239;SDS011;42154;51.992;5.896;2024-02-21T01:07:54;18.27;;;11.55;;
56239;SDS011;42154;51.992;5.896;2024-02-21T01:10:20;19.92;;;11.27;;
56239;SDS011;42154;51.992;5.896;2024-02-21T01:12:45;21.40;;;12.10;;
56239;SDS011;42154;51.992;5.896;2024-02-21T01:15:11;18.45;;;11.70;;
56239;SDS011;42154;51.992;5.896;2024-02-21T01:17:37;19.98;;;11.10;;
56239;SDS011;42154;51.992;5.896;2024-02-21T01:20:03;19.40;;;11.55;;
56239;SDS011;42154;51.992;5.896;2024-02-21T01:22:32;19.30;;;11.13;;
56239;SDS011;42154;51.992;5.896;2024-02-21T01:24:58;15.88;;;10.82;;
56239;SDS011;42154;51.992;5.896;2024-02-21T01:27:24;20.33;;;11.65;;
56239;SDS011;42154;51.992;5.896;2024-02-21T01:29:49;23.55;;;12.85;;
56239;SDS011;42154;51.992;5.896;2024-02-21T01:32:15;21.02;;;11.73;;
56239;SDS011;42154;51.992;5.896;2024-02-21T01:34:41;18.48;;;11.50;;
56239;SDS011;42154;51.992;5.896;2024-02-21T01:37:07;20.92;;;10.65;;
56239;SDS011;42154;51.992;5.896;2024-02-21T01:39:33;19.55;;;10.90;;
56239;SDS011;42154;51.992;5.896;2024-02-21T01:41:59;18.30;;;10.55;;
56239;SDS011;42154;51.992;5.896;2024-02-21T01:44:25;15.63;;;9.90;;
56239;SDS011;42154;51.992;5.896;2024-02-21T01:46:51;18.48;;;9.40;;
56239;SDS011;42154;51.992;5.896;2024-02-21T01:49:18;17.63;;;10.55;;
56239;SDS011;42154;51.992;5.896;2024-02-21T01:51:47;19.35;;;11.55;;
56239;SDS011;42154;51.992;5.896;2024-02-21T01:54:13;19.75;;;11.43;;
56239;SDS011;42154;51.992;5.896;2024-02-21T01:56:43;12.13;;;8.07;;
56239;SDS011;42154;51.992;5.896;2024-02-21T01:59:10;21.10;;;9.13;;
56239;SDS011;42154;51.992;5.896;2024-02-21T02:01:37;20.52;;;11.52;;
56239;SDS011;42154;51.992;5.896;2024-02-21T02:04:03;19.60;;;11.10;;
56239;SDS011;42154;51.992;5.896;2024-02-21T02:06:30;16.50;;;10.77;;
56239;SDS011;42154;51.992;5.896;2024-02-21T02:08:56;17.08;;;9.63;;
56239;SDS011;42154;51.992;5.896;2024-02-21T02:11:22;16.80;;;10.50;;
56239;SDS011;42154;51.992;5.896;2024-02-21T02:13:48;16.40;;;9.55;;
56239;SDS011;42154;51.992;5.896;2024-02-21T02:16:14;17.25;;;10.38;;
56239;SDS011;42154;51.992;5.896;2024-02-21T02:18:40;17.05;;;10.60;;
56239;SDS011;42154;51.992;5.896;2024-02-21T02:21:07;18.42;;;10.10;;
56239;SDS011;42154;51.992;5.896;2024-02-21T02:23:50;18.75;;;11.27;;
56239;SDS011;42154;51.992;5.896;2024-02-21T02:26:16;18.45;;;10.70;;
56239;SDS011;42154;51.992;5.896;2024-02-21T02:28:42;17.67;;;10.65;;
56239;SDS011;42154;51.992;5.896;2024-02-21T02:31:07;15.80;;;9.73;;
56239;SDS011;42154;51.992;5.896;2024-02-21T02:33:33;16.88;;;10.32;;
56239;SDS011;42154;51.992;5.896;2024-02-21T02:35:59;18.15;;;10.15;;
56239;SDS011;42154;51.992;5.896;2024-02-21T02:38:24;14.23;;;9.35;;
56239;SDS011;42154;51.992;5.896;2024-02-21T02:40:50;19.70;;;9.48;;
56239;SDS011;42154;51.992;5.896;2024-02-21T02:43:16;18.70;;;10.00;;
56239;SDS011;42154;51.992;5.896;2024-02-21T02:45:41;20.95;;;11.00;;
56239;SDS011;42154;51.992;5.896;2024-02-21T02:48:07;17.95;;;10.57;;
56239;SDS011;42154;51.992;5.896;2024-02-21T02:50:33;16.38;;;10.45;;
56239;SDS011;42154;51.992;5.896;2024-02-21T02:52:59;18.63;;;11.57;;
56239;SDS011;42154;51.992;5.896;2024-02-21T02:55:25;14.40;;;9.82;;
56239;SDS011;42154;51.992;5.896;2024-02-21T02:57:51;18.15;;;10.73;;
56239;SDS011;42154;51.992;5.896;2024-02-21T03:00:17;14.73;;;10.13;;
56239;SDS011;42154;51.992;5.896;2024-02-21T03:02:43;18.20;;;10.48;;
56239;SDS011;42154;51.992;5.896;2024-02-21T03:05:14;23.27;;;11.38;;
56239;SDS011;42154;51.992;5.896;2024-02-21T03:07:41;16.13;;;10.65;;
56239;SDS011;42154;51.992;5.896;2024-02-21T03:10:08;20.77;;;11.50;;
56239;SDS011;42154;51.992;5.896;2024-02-21T03:12:34;18.00;;;10.57;;
56239;SDS011;42154;51.992;5.896;2024-02-21T03:15:00;19.05;;;10.25;;
56239;SDS011;42154;51.992;5.896;2024-02-21T03:17:25;17.40;;;10.25;;
56239;SDS011;42154;51.992;5.896;2024-02-21T03:19:54;16.17;;;10.55;;
56239;SDS011;42154;51.992;5.896;2024-02-21T03:22:23;19.00;;;9.85;;
56239;SDS011;42154;51.992;5.896;2024-02-21T03:24:49;22.58;;;11.25;;
56239;SDS011;42154;51.992;5.896;2024-02-21T03:27:15;13.95;;;10.00;;
56239;SDS011;42154;51.992;5.896;2024-02-21T03:29:41;15.40;;;10.32;;
56239;SDS011;42154;51.992;5.896;2024-02-21T03:32:06;17.30;;;10.43;;
56239;SDS011;42154;51.992;5.896;2024-02-21T03:34:32;18.23;;;10.45;;
56239;SDS011;42154;51.992;5.896;2024-02-21T03:36:58;14.98;;;9.88;;
56239;SDS011;42154;51.992;5.896;2024-02-21T03:39:25;15.18;;;9.02;;
56239;SDS011;42154;51.992;5.896;2024-02-21T03:41:50;18.52;;;10.70;;
56239;SDS011;42154;51.992;5.896;2024-02-21T03:44:17;15.68;;;9.55;;
56239;SDS011;42154;51.992;5.896;2024-02-21T03:46:42;16.38;;;9.75;;
56239;SDS011;42154;51.992;5.896;2024-02-21T03:49:08;15.65;;;9.85;;
56239;SDS011;42154;51.992;5.896;2024-02-21T03:51:34;16.42;;;9.07;;
56239;SDS011;42154;51.992;5.896;2024-02-21T03:54:00;13.15;;;8.90;;
56239;SDS011;42154;51.992;5.896;2024-02-21T03:56:26;14.50;;;8.32;;
56239;SDS011;42154;51.992;5.896;2024-02-21T03:58:51;14.10;;;8.55;;
56239;SDS011;42154;51.992;5.896;2024-02-21T04:01:17;13.07;;;7.60;;
56239;SDS011;42154;51.992;5.896;2024-02-21T04:03:43;17.02;;;9.13;;
56239;SDS011;42154;51.992;5.896;2024-02-21T04:06:09;17.88;;;8.00;;
56239;SDS011;42154;51.992;5.896;2024-02-21T04:08:35;14.85;;;8.00;;
56239;SDS011;42154;51.992;5.896;2024-02-21T04:11:01;15.77;;;7.57;;
56239;SDS011;42154;51.992;5.896;2024-02-21T04:13:26;11.93;;;7.75;;
56239;SDS011;42154;51.992;5.896;2024-02-21T04:15:52;12.25;;;7.80;;
56239;SDS011;42154;51.992;5.896;2024-02-21T04:18:18;13.95;;;7.28;;
56239;SDS011;42154;51.992;5.896;2024-02-21T04:20:44;12.68;;;6.88;;
56239;SDS011;42154;51.992;5.896;2024-02-21T04:23:10;16.40;;;7.70;;
56239;SDS011;42154;51.992;5.896;2024-02-21T04:25:35;11.15;;;6.70;;
56239;SDS011;42154;51.992;5.896;2024-02-21T04:28:02;13.55;;;7.50;;
56239;SDS011;42154;51.992;5.896;2024-02-21T04:30:28;13.10;;;6.13;;
56239;SDS011;42154;51.992;5.896;2024-02-21T04:32:53;14.30;;;6.88;;
56239;SDS011;42154;51.992;5.896;2024-02-21T04:35:19;14.48;;;6.93;;
56239;SDS011;42154;51.992;5.896;2024-02-21T04:37:45;10.45;;;6.20;;
56239;SDS011;42154;51.992;5.896;2024-02-21T04:40:11;13.60;;;7.00;;
56239;SDS011;42154;51.992;5.896;2024-02-21T04:42:38;8.35;;;5.82;;
56239;SDS011;42154;51.992;5.896;2024-02-21T04:45:04;9.45;;;5.63;;
56239;SDS011;42154;51.992;5.896;2024-02-21T04:47:30;11.82;;;6.28;;
56239;SDS011;42154;51.992;5.896;2024-02-21T04:49:56;13.77;;;6.70;;
56239;SDS011;42154;51.992;5.896;2024-02-21T04:52:21;11.00;;;6.93;;
56239;SDS011;42154;51.992;5.896;2024-02-21T04:54:47;11.10;;;5.78;;
56239;SDS011;42154;51.992;5.896;2024-02-21T04:57:13;7.30;;;5.05;;
56239;SDS011;42154;51.992;5.896;2024-02-21T04:59:43;9.30;;;4.95;;
56239;SDS011;42154;51.992;5.896;2024-02-21T05:02:10;11.20;;;6.07;;
56239;SDS011;42154;51.992;5.896;2024-02-21T05:04:36;7.75;;;4.95;;
56239;SDS011;42154;51.992;5.896;2024-02-21T05:07:03;14.40;;;6.50;;
56239;SDS011;42154;51.992;5.896;2024-02-21T05:09:30;9.40;;;5.30;;
56239;SDS011;42154;51.992;5.896;2024-02-21T05:11:56;11.70;;;5.53;;
56239;SDS011;42154;51.992;5.896;2024-02-21T05:14:24;8.25;;;5.57;;
56239;SDS011;42154;51.992;5.896;2024-02-21T05:16:50;10.25;;;5.32;;
56239;SDS011;42154;51.992;5.896;2024-02-21T05:19:15;9.45;;;6.15;;
56239;SDS011;42154;51.992;5.896;2024-02-21T05:21:41;12.55;;;6.30;;
56239;SDS011;42154;51.992;5.896;2024-02-21T05:24:07;8.82;;;5.72;;
56239;SDS011;42154;51.992;5.896;2024-02-21T05:26:32;12.48;;;7.40;;
56239;SDS011;42154;51.992;5.896;2024-02-21T05:28:58;12.20;;;6.43;;
56239;SDS011;42154;51.992;5.896;2024-02-21T05:31:24;17.05;;;7.93;;
56239;SDS011;42154;51.992;5.896;2024-02-21T05:33:50;11.25;;;6.97;;
56239;SDS011;42154;51.992;5.896;2024-02-21T05:36:16;12.73;;;8.18;;
56239;SDS011;42154;51.992;5.896;2024-02-21T05:38:42;15.60;;;9.27;;
56239;SDS011;42154;51.992;5.896;2024-02-21T05:41:08;14.38;;;8.70;;
56239;SDS011;42154;51.992;5.896;2024-02-21T05:43:33;12.85;;;8.32;;
56239;SDS011;42154;51.992;5.896;2024-02-21T05:45:59;19.80;;;9.05;;
56239;SDS011;42154;51.992;5.896;2024-02-21T05:48:25;17.00;;;9.00;;
56239;SDS011;42154;51.992;5.896;2024-02-21T05:50:51;16.08;;;9.30;;
56239;SDS011;42154;51.992;5.896;2024-02-21T05:53:16;15.05;;;8.43;;
56239;SDS011;42154;51.992;5.896;2024-02-21T05:55:42;16.80;;;8.68;;
56239;SDS011;42154;51.992;5.896;2024-02-21T05:58:08;16.85;;;9.20;;
56239;SDS011;42154;51.992;5.896;2024-02-21T06:00:38;14.15;;;8.57;;
56239;SDS011;42154;51.992;5.896;2024-02-21T06:03:04;13.45;;;8.20;;
56239;SDS011;42154;51.992;5.896;2024-02-21T06:05:29;12.38;;;7.75;;
56239;SDS011;42154;51.992;5.896;2024-02-21T06:07:57;16.58;;;9.30;;
56239;SDS011;42154;51.992;5.896;2024-02-21T06:10:22;17.95;;;9.13;;
56239;SDS011;42154;51.992;5.896;2024-02-21T06:12:48;12.95;;;8.40;;
56239;SDS011;42154;51.992;5.896;2024-02-21T06:15:14;16.52;;;11.23;;
56239;SDS011;42154;51.992;5.896;2024-02-21T06:17:40;12.25;;;8.73;;
56239;SDS011;42154;51.992;5.896;2024-02-21T06:20:05;16.55;;;10.45;;
56239;SDS011;42154;51.992;5.896;2024-02-21T06:22:32;13.73;;;9.95;;
56239;SDS011;42154;51.992;5.896;2024-02-21T06:24:58;17.52;;;9.85;;
56239;SDS011;42154;51.992;5.896;2024-02-21T06:27:24;12.00;;;8.55;;
56239;SDS011;42154;51.992;5.896;2024-02-21T06:29:50;15.48;;;8.65;;
56239;SDS011;42154;51.992;5.896;2024-02-21T06:32:16;15.68;;;9.18;;
56239;SDS011;42154;51.992;5.896;2024-02-21T06:34:42;12.70;;;8.07;;
56239;SDS011;42154;51.992;5.896;2024-02-21T06:37:08;13.93;;;7.50;;
56239;SDS011;42154;51.992;5.896;2024-02-21T06:39:34;13.82;;;7.80;;
56239;SDS011;42154;51.992;5.896;2024-02-21T06:42:02;13.65;;;9.02;;
56239;SDS011;42154;51.992;5.896;2024-02-21T06:44:28;14.57;;;7.97;;
56239;SDS011;42154;51.992;5.896;2024-02-21T06:46:54;16.00;;;8.35;;
56239;SDS011;42154;51.992;5.896;2024-02-21T06:49:20;12.18;;;6.45;;
56239;SDS011;42154;51.992;5.896;2024-02-21T06:51:45;13.15;;;7.45;;
56239;SDS011;42154;51.992;5.896;2024-02-21T06:54:11;11.57;;;6.95;;
56239;SDS011;42154;51.992;5.896;2024-02-21T06:56:37;12.57;;;6.78;;
56239;SDS011;42154;51.992;5.896;2024-02-21T06:59:05;14.95;;;7.13;;
56239;SDS011;42154;51.992;5.896;2024-02-21T07:01:30;13.68;;;7.32;;
56239;SDS011;42154;51.992;5.896;2024-02-21T07:03:56;17.25;;;7.72;;
56239;SDS011;42154;51.992;5.896;2024-02-21T07:06:22;12.85;;;6.70;;
56239;SDS011;42154;51.992;5.896;2024-02-21T07:08:48;12.00;;;6.45;;
56239;SDS011;42154;51.992;5.896;2024-02-21T07:11:14;10.50;;;6.70;;
56239;SDS011;42154;51.992;5.896;2024-02-21T07:13:40;11.95;;;7.22;;
56239;SDS011;42154;51.992;5.896;2024-02-21T07:16:06;11.98;;;6.65;;
56239;SDS011;42154;51.992;5.896;2024-02-21T07:18:32;12.18;;;7.25;;
56239;SDS011;42154;51.992;5.896;2024-02-21T07:20:58;15.05;;;8.45;;
56239;SDS011;42154;51.992;5.896;2024-02-21T07:23:23;11.93;;;6.63;;
56239;SDS011;42154;51.992;5.896;2024-02-21T07:25:49;14.85;;;8.02;;
56239;SDS011;42154;51.992;5.896;2024-02-21T07:28:15;12.65;;;7.25;;
56239;SDS011;42154;51.992;5.896;2024-02-21T07:30:42;14.00;;;7.57;;
56239;SDS011;42154;51.992;5.896;2024-02-21T07:33:08;12.82;;;7.07;;
56239;SDS011;42154;51.992;5.896;2024-02-21T07:35:34;14.02;;;7.07;;
56239;SDS011;42154;51.992;5.896;2024-02-21T07:38:03;13.32;;;7.85;;
56239;SDS011;42154;51.992;5.896;2024-02-21T07:40:30;13.32;;;7.70;;
56239;SDS011;42154;51.992;5.896;2024-02-21T07:42:56;13.25;;;6.68;;
56239;SDS011;42154;51.992;5.896;2024-02-21T07:45:21;17.25;;;8.07;;
56239;SDS011;42154;51.992;5.896;2024-02-21T07:47:49;13.75;;;7.63;;
56239;SDS011;42154;51.992;5.896;2024-02-21T07:50:15;12.68;;;6.15;;
56239;SDS011;42154;51.992;5.896;2024-02-21T07:52:41;11.75;;;7.20;;
56239;SDS011;42154;51.992;5.896;2024-02-21T07:55:07;11.48;;;6.55;;
56239;SDS011;42154;51.992;5.896;2024-02-21T07:57:35;15.57;;;8.05;;
56239;SDS011;42154;51.992;5.896;2024-02-21T08:00:01;11.10;;;6.25;;
56239;SDS011;42154;51.992;5.896;2024-02-21T08:02:37;13.93;;;7.55;;
56239;SDS011;42154;51.992;5.896;2024-02-21T08:05:03;14.40;;;7.63;;
56239;SDS011;42154;51.992;5.896;2024-02-21T08:07:29;12.80;;;7.57;;
56239;SDS011;42154;51.992;5.896;2024-02-21T08:09:56;13.30;;;7.07;;
56239;SDS011;42154;51.992;5.896;2024-02-21T08:12:22;12.70;;;7.40;;
56239;SDS011;42154;51.992;5.896;2024-02-21T08:14:47;13.77;;;7.70;;
56239;SDS011;42154;51.992;5.896;2024-02-21T08:17:13;14.65;;;8.10;;
56239;SDS011;42154;51.992;5.896;2024-02-21T08:19:39;14.18;;;7.65;;
56239;SDS011;42154;51.992;5.896;2024-02-21T08:22:04;13.15;;;6.93;;
56239;SDS011;42154;51.992;5.896;2024-02-21T08:24:31;13.27;;;8.35;;
56239;SDS011;42154;51.992;5.896;2024-02-21T08:26:56;11.75;;;7.55;;
56239;SDS011;42154;51.992;5.896;2024-02-21T08:29:22;12.80;;;6.70;;
56239;SDS011;42154;51.992;5.896;2024-02-21T08:31:48;17.13;;;8.07;;
56239;SDS011;42154;51.992;5.896;2024-02-21T08:34:14;14.82;;;7.20;;
56239;SDS011;42154;51.992;5.896;2024-02-21T08:36:40;16.30;;;8.27;;
56239;SDS011;42154;51.992;5.896;2024-02-21T08:39:05;14.13;;;7.53;;
56239;SDS011;42154;51.992;5.896;2024-02-21T08:41:32;12.88;;;7.82;;
56239;SDS011;42154;51.992;5.896;2024-02-21T08:43:59;12.38;;;7.80;;
56239;SDS011;42154;51.992;5.896;2024-02-21T08:46:26;11.90;;;7.53;;
56239;SDS011;42154;51.992;5.896;2024-02-21T08:48:53;14.02;;;7.80;;
56239;SDS011;42154;51.992;5.896;2024-02-21T08:51:19;19.85;;;9.02;;
56239;SDS011;42154;51.992;5.896;2024-02-21T08:53:46;14.88;;;8.40;;
56239;SDS011;42154;51.992;5.896;2024-02-21T08:56:12;18.00;;;9.30;;
56239;SDS011;42154;51.992;5.896;2024-02-21T08:58:38;18.23;;;8.30;;
56239;SDS011;42154;51.992;5.896;2024-02-21T09:01:05;15.30;;;8.65;;
56239;SDS011;42154;51.992;5.896;2024-02-21T09:03:32;13.55;;;7.60;;
56239;SDS011;42154;51.992;5.896;2024-02-21T09:05:58;14.70;;;7.70;;
56239;SDS011;42154;51.992;5.896;2024-02-21T09:08:25;14.55;;;8.40;;
56239;SDS011;42154;51.992;5.896;2024-02-21T09:10:51;14.82;;;8.68;;
56239;SDS011;42154;51.992;5.896;2024-02-21T09:13:17;12.50;;;7.72;;
56239;SDS011;42154;51.992;5.896;2024-02-21T09:15:43;14.18;;;7.50;;
56239;SDS011;42154;51.992;5.896;2024-02-21T09:18:09;14.45;;;7.93;;
56239;SDS011;42154;51.992;5.896;2024-02-21T09:20:35;12.00;;;7.32;;
56239;SDS011;42154;51.992;5.896;2024-02-21T09:23:01;11.60;;;6.93;;
56239;SDS011;42154;51.992;5.896;2024-02-21T09:25:27;11.15;;;6.75;;
56239;SDS011;42154;51.992;5.896;2024-02-21T09:27:53;12.45;;;7.50;;
56239;SDS011;42154;51.992;5.896;2024-02-21T09:30:19;12.27;;;6.60;;
56239;SDS011;42154;51.992;5.896;2024-02-21T09:32:45;10.48;;;6.60;;
56239;SDS011;42154;51.992;5.896;2024-02-21T09:35:12;15.68;;;7.45;;
56239;SDS011;42154;51.992;5.896;2024-02-21T09:37:38;10.93;;;7.15;;
56239;SDS011;42154;51.992;5.896;2024-02-21T09:40:05;12.13;;;7.32;;
56239;SDS011;42154;51.992;5.896;2024-02-21T09:42:36;9.30;;;5.80;;
56239;SDS011;42154;51.992;5.896;2024-02-21T09:45:15;9.60;;;6.25;;
56239;SDS011;42154;51.992;5.896;2024-02-21T09:50:15;11.77;;;6.68;;
56239;SDS011;42154;51.992;5.896;2024-02-21T09:52:41;9.85;;;5.82;;
56239;SDS011;42154;51.992;5.896;2024-02-21T09:55:09;13.25;;;7.15;;
56239;SDS011;42154;51.992;5.896;2024-02-21T09:57:38;9.38;;;6.35;;
56239;SDS011;42154;51.992;5.896;2024-02-21T10:00:04;7.78;;;5.75;;
56239;SDS011;42154;51.992;5.896;2024-02-21T10:02:39;9.38;;;6.50;;
56239;SDS011;42154;51.992;5.896;2024-02-21T10:05:04;11.35;;;7.75;;
56239;SDS011;42154;51.992;5.896;2024-02-21T10:07:33;9.27;;;5.80;;
56239;SDS011;42154;51.992;5.896;2024-02-21T10:10:02;9.73;;;5.88;;
56239;SDS011;42154;51.992;5.896;2024-02-21T10:12:29;7.68;;;5.18;;
56239;SDS011;42154;51.992;5.896;2024-02-21T10:15:04;8.32;;;5.10;;
56239;SDS011;42154;51.992;5.896;2024-02-21T10:17:34;10.63;;;6.15;;
56239;SDS011;42154;51.992;5.896;2024-02-21T10:20:11;10.63;;;5.90;;
56239;SDS011;42154;51.992;5.896;2024-02-21T10:22:37;10.68;;;5.95;;
56239;SDS011;42154;51.992;5.896;2024-02-21T10:27:34;8.68;;;5.88;;
56239;SDS011;42154;51.992;5.896;2024-02-21T10:30:01;6.70;;;5.18;;
56239;SDS011;42154;51.992;5.896;2024-02-21T10:32:27;7.03;;;5.25;;
56239;SDS011;42154;51.992;5.896;2024-02-21T10:35:00;8.73;;;5.68;;
56239;SDS011;42154;51.992;5.896;2024-02-21T10:37:33;8.20;;;5.00;;
56239;SDS011;42154;51.992;5.896;2024-02-21T10:40:00;5.97;;;4.43;;
56239;SDS011;42154;51.992;5.896;2024-02-21T10:42:28;6.32;;;4.55;;
56239;SDS011;42154;51.992;5.896;2024-02-21T10:45:00;6.85;;;4.78;;
56239;SDS011;42154;51.992;5.896;2024-02-21T10:47:30;7.77;;;4.27;;
56239;SDS011;42154;51.992;5.896;2024-02-21T10:49:57;10.50;;;5.53;;
56239;SDS011;42154;51.992;5.896;2024-02-21T10:55:26;9.35;;;5.70;;
56239;SDS011;42154;51.992;5.896;2024-02-21T10:57:59;6.78;;;4.45;;
56239;SDS011;42154;51.992;5.896;2024-02-21T11:00:25;9.32;;;5.07;;
56239;SDS011;42154;51.992;5.896;2024-02-21T11:02:56;5.55;;;4.35;;
56239;SDS011;42154;51.992;5.896;2024-02-21T11:05:23;7.15;;;4.78;;
56239;SDS011;42154;51.992;5.896;2024-02-21T11:07:50;6.32;;;4.13;;
56239;SDS011;42154;51.992;5.896;2024-02-21T11:10:26;6.18;;;5.55;;
56239;SDS011;42154;51.992;5.896;2024-02-21T11:13:10;6.88;;;5.15;;
56239;SDS011;42154;51.992;5.896;2024-02-21T11:15:36;7.15;;;4.93;;
56239;SDS011;42154;51.992;5.896;2024-02-21T11:18:02;7.20;;;5.10;;
56239;SDS011;42154;51.992;5.896;2024-02-21T11:20:35;8.35;;;4.90;;
56239;SDS011;42154;51.992;5.896;2024-02-21T11:23:03;7.45;;;5.47;;
56239;SDS011;42154;51.992;5.896;2024-02-21T11:25:30;9.80;;;5.90;;
56239;SDS011;42154;51.992;5.896;2024-02-21T11:28:03;10.88;;;6.82;;
56239;SDS011;42154;51.992;5.896;2024-02-21T11:30:30;11.77;;;7.63;;
56239;SDS011;42154;51.992;5.896;2024-02-21T11:33:05;10.52;;;6.47;;
56239;SDS011;42154;51.992;5.896;2024-02-21T11:35:32;15.02;;;7.40;;
56239;SDS011;42154;51.992;5.896;2024-02-21T11:38:11;13.13;;;7.78;;
56239;SDS011;42154;51.992;5.896;2024-02-21T11:40:44;12.38;;;6.47;;
56239;SDS011;42154;51.992;5.896;2024-02-21T11:43:11;8.82;;;6.40;;
56239;SDS011;42154;51.992;5.896;2024-02-21T11:45:37;9.48;;;5.53;;
56239;SDS011;42154;51.992;5.896;2024-02-21T11:48:07;8.38;;;5.40;;
56239;SDS011;42154;51.992;5.896;2024-02-21T11:50:36;6.95;;;4.95;;
56239;SDS011;42154;51.992;5.896;2024-02-21T11:53:02;8.40;;;5.13;;
56239;SDS011;42154;51.992;5.896;2024-02-21T11:55:28;11.55;;;5.63;;
56239;SDS011;42154;51.992;5.896;2024-02-21T11:57:54;7.78;;;5.30;;
56239;SDS011;42154;51.992;5.896;2024-02-21T12:00:20;8.70;;;5.80;;
56239;SDS011;42154;51.992;5.896;2024-02-21T12:02:47;8.20;;;4.78;;
56239;SDS011;42154;51.992;5.896;2024-02-21T12:05:12;7.32;;;4.85;;
56239;SDS011;42154;51.992;5.896;2024-02-21T12:07:39;7.38;;;4.75;;
56239;SDS011;42154;51.992;5.896;2024-02-21T12:10:09;6.60;;;5.20;;
56239;SDS011;42154;51.992;5.896;2024-02-21T12:12:36;10.27;;;5.80;;
56239;SDS011;42154;51.992;5.896;2024-02-21T12:15:03;7.38;;;4.97;;
56239;SDS011;42154;51.992;5.896;2024-02-21T12:17:30;8.45;;;4.55;;
56239;SDS011;42154;51.992;5.896;2024-02-21T12:19:59;9.75;;;4.82;;
56239;SDS011;42154;51.992;5.896;2024-02-21T12:22:25;7.63;;;4.95;;
56239;SDS011;42154;51.992;5.896;2024-02-21T12:24:51;6.30;;;4.28;;
56239;SDS011;42154;51.992;5.896;2024-02-21T12:27:17;11.35;;;4.85;;
56239;SDS011;42154;51.992;5.896;2024-02-21T12:29:42;9.25;;;5.63;;
56239;SDS011;42154;51.992;5.896;2024-02-21T12:32:08;8.80;;;4.45;;
56239;SDS011;42154;51.992;5.896;2024-02-21T12:34:34;7.47;;;4.60;;
56239;SDS011;42154;51.992;5.896;2024-02-21T12:37:01;8.07;;;5.30;;
56239;SDS011;42154;51.992;5.896;2024-02-21T12:39:28;7.95;;;4.65;;
56239;SDS011;42154;51.992;5.896;2024-02-21T12:41:54;8.43;;;4.43;;
56239;SDS011;42154;51.992;5.896;2024-02-21T12:44:21;7.25;;;4.15;;
56239;SDS011;42154;51.992;5.896;2024-02-21T12:46:47;7.55;;;4.53;;
56239;SDS011;42154;51.992;5.896;2024-02-21T12:49:19;6.65;;;4.00;;
56239;SDS011;42154;51.992;5.896;2024-02-21T12:51:44;7.10;;;4.15;;
56239;SDS011;42154;51.992;5.896;2024-02-21T12:54:12;6.20;;;3.63;;
56239;SDS011;42154;51.992;5.896;2024-02-21T12:56:37;7.38;;;4.35;;
56239;SDS011;42154;51.992;5.896;2024-02-21T12:59:05;9.57;;;4.47;;
56239;SDS011;42154;51.992;5.896;2024-02-21T13:01:34;7.00;;;4.32;;
56239;SDS011;42154;51.992;5.896;2024-02-21T13:04:01;9.60;;;4.50;;
56239;SDS011;42154;51.992;5.896;2024-02-21T13:06:27;8.20;;;4.72;;
56239;SDS011;42154;51.992;5.896;2024-02-21T13:08:53;9.10;;;4.10;;
56239;SDS011;42154;51.992;5.896;2024-02-21T13:11:18;7.18;;;3.97;;
56239;SDS011;42154;51.992;5.896;2024-02-21T13:13:44;7.63;;;4.13;;
56239;SDS011;42154;51.992;5.896;2024-02-21T13:16:10;6.35;;;3.28;;
56239;SDS011;42154;51.992;5.896;2024-02-21T13:18:36;8.82;;;3.67;;
56239;SDS011;42154;51.992;5.896;2024-02-21T13:21:07;7.15;;;3.70;;
56239;SDS011;42154;51.992;5.896;2024-02-21T13:23:33;6.47;;;3.38;;
56239;SDS011;42154;51.992;5.896;2024-02-21T13:25:59;6.82;;;3.40;;
56239;SDS011;42154;51.992;5.896;2024-02-21T13:28:25;8.18;;;3.30;;
56239;SDS011;42154;51.992;5.896;2024-02-21T13:30:50;8.20;;;4.10;;
56239;SDS011;42154;51.992;5.896;2024-02-21T13:33:16;6.85;;;3.60;;
56239;SDS011;42154;51.992;5.896;2024-02-21T13:35:42;7.20;;;3.15;;
56239;SDS011;42154;51.992;5.896;2024-02-21T13:38:08;6.95;;;3.38;;
56239;SDS011;42154;51.992;5.896;2024-02-21T13:40:35;7.43;;;4.43;;
56239;SDS011;42154;51.992;5.896;2024-02-21T13:43:01;6.03;;;3.30;;
56239;SDS011;42154;51.992;5.896;2024-02-21T13:45:27;8.55;;;4.75;;
56239;SDS011;42154;51.992;5.896;2024-02-21T13:47:53;8.13;;;4.10;;
56239;SDS011;42154;51.992;5.896;2024-02-21T13:50:19;9.85;;;4.55;;
56239;SDS011;42154;51.992;5.896;2024-02-21T13:52:53;10.63;;;4.57;;
56239;SDS011;42154;51.992;5.896;2024-02-21T13:55:19;8.80;;;4.07;;
56239;SDS011;42154;51.992;5.896;2024-02-21T13:57:47;8.05;;;4.20;;
56239;SDS011;42154;51.992;5.896;2024-02-21T14:00:14;6.65;;;3.85;;
56239;SDS011;42154;51.992;5.896;2024-02-21T14:02:40;5.82;;;3.28;;
56239;SDS011;42154;51.992;5.896;2024-02-21T14:05:06;12.32;;;3.80;;
56239;SDS011;42154;51.992;5.896;2024-02-21T14:07:32;8.05;;;4.32;;
56239;SDS011;42154;51.992;5.896;2024-02-21T14:09:58;7.15;;;4.03;;
56239;SDS011;42154;51.992;5.896;2024-02-21T14:12:24;12.82;;;4.72;;
56239;SDS011;42154;51.992;5.896;2024-02-21T14:14:50;6.25;;;4.20;;
56239;SDS011;42154;51.992;5.896;2024-02-21T14:17:17;8.25;;;3.72;;
56239;SDS011;42154;51.992;5.896;2024-02-21T14:19:43;6.63;;;3.80;;
56239;SDS011;42154;51.992;5.896;2024-02-21T14:22:09;8.68;;;4.43;;
56239;SDS011;42154;51.992;5.896;2024-02-21T14:24:36;9.68;;;3.97;;
56239;SDS011;42154;51.992;5.896;2024-02-21T14:27:02;9.95;;;3.78;;
56239;SDS011;42154;51.992;5.896;2024-02-21T14:29:28;7.07;;;3.10;;
56239;SDS011;42154;51.992;5.896;2024-02-21T14:31:54;6.18;;;3.47;;
56239;SDS011;42154;51.992;5.896;2024-02-21T14:34:20;5.78;;;3.10;;
56239;SDS011;42154;51.992;5.896;2024-02-21T14:36:46;7.28;;;3.72;;
56239;SDS011;42154;51.992;5.896;2024-02-21T14:39:11;6.07;;;3.10;;
56239;SDS011;42154;51.992;5.896;2024-02-21T14:41:37;6.35;;;2.72;;